sensor_id;sensor_type;location;lat;lon;timestamp;temperature;humidity
20349;DHT22;10332;50.208;18.988;2022-07-23T00:00:30;24.00;88.70
20349;DHT22;10332;50.208;18.988;2022-07-23T00:03:06;23.90;88.90
20349;DHT22;10332;50.208;18.988;2022-07-23T00:05:33;23.90;89.10
20349;DHT22;10332;50.208;18.988;2022-07-23T00:08:03;23.90;89.90
20349;DHT22;10332;50.208;18.988;2022-07-23T00:10:32;23.80;89.90
20349;DHT22;10332;50.208;18.988;2022-07-23T00:13:00;23.70;90.00
20349;DHT22;10332;50.208;18.988;2022-07-23T00:15:27;23.70;90.00
20349;DHT22;10332;50.208;18.988;2022-07-23T00:17:55;23.70;90.20
20349;DHT22;10332;50.208;18.988;2022-07-23T00:20:22;23.60;90.30
20349;DHT22;10332;50.208;18.988;2022-07-23T00:22:55;23.60;90.40
20349;DHT22;10332;50.208;18.988;2022-07-23T00:25:23;23.60;90.60
20349;DHT22;10332;50.208;18.988;2022-07-23T00:27:57;23.50;90.80
20349;DHT22;10332;50.208;18.988;2022-07-23T00:30:25;23.40;90.90
20349;DHT22;10332;50.208;18.988;2022-07-23T00:32:58;23.40;91.30
20349;DHT22;10332;50.208;18.988;2022-07-23T00:35:30;23.30;91.30
20349;DHT22;10332;50.208;18.988;2022-07-23T00:38:01;23.30;91.40
20349;DHT22;10332;50.208;18.988;2022-07-23T00:40:30;23.30;91.80
20349;DHT22;10332;50.208;18.988;2022-07-23T00:42:57;23.20;91.70
20349;DHT22;10332;50.208;18.988;2022-07-23T00:45:26;23.20;91.80
20349;DHT22;10332;50.208;18.988;2022-07-23T00:47:54;23.20;91.80
20349;DHT22;10332;50.208;18.988;2022-07-23T00:50:21;23.20;91.90
20349;DHT22;10332;50.208;18.988;2022-07-23T00:52:49;23.20;91.90
20349;DHT22;10332;50.208;18.988;2022-07-23T00:55:17;23.10;92.00
20349;DHT22;10332;50.208;18.988;2022-07-23T00:57:44;23.10;92.20
20349;DHT22;10332;50.208;18.988;2022-07-23T01:00:13;23.00;92.90
20349;DHT22;10332;50.208;18.988;2022-07-23T01:02:42;22.90;93.00
20349;DHT22;10332;50.208;18.988;2022-07-23T01:05:10;22.90;93.00
20349;DHT22;10332;50.208;18.988;2022-07-23T01:07:37;22.90;93.40
20349;DHT22;10332;50.208;18.988;2022-07-23T01:10:06;22.90;93.70
20349;DHT22;10332;50.208;18.988;2022-07-23T01:12:52;22.90;93.70
20349;DHT22;10332;50.208;18.988;2022-07-23T01:15:21;22.90;93.50
20349;DHT22;10332;50.208;18.988;2022-07-23T01:17:49;22.90;93.30
20349;DHT22;10332;50.208;18.988;2022-07-23T01:20:17;22.90;93.20
20349;DHT22;10332;50.208;18.988;2022-07-23T01:22:46;23.00;93.20
20349;DHT22;10332;50.208;18.988;2022-07-23T01:25:13;22.90;93.50
20349;DHT22;10332;50.208;18.988;2022-07-23T01:27:40;22.90;93.40
20349;DHT22;10332;50.208;18.988;2022-07-23T01:30:09;22.90;93.30
20349;DHT22;10332;50.208;18.988;2022-07-23T01:32:38;22.90;93.70
20349;DHT22;10332;50.208;18.988;2022-07-23T01:35:06;22.90;93.30
20349;DHT22;10332;50.208;18.988;2022-07-23T01:37:35;22.90;93.40
20349;DHT22;10332;50.208;18.988;2022-07-23T01:40:03;22.90;93.30
20349;DHT22;10332;50.208;18.988;2022-07-23T01:42:32;22.80;93.10
20349;DHT22;10332;50.208;18.988;2022-07-23T01:45:01;22.80;93.00
20349;DHT22;10332;50.208;18.988;2022-07-23T01:47:29;22.80;93.10
20349;DHT22;10332;50.208;18.988;2022-07-23T01:49:57;22.80;93.10
20349;DHT22;10332;50.208;18.988;2022-07-23T01:52:24;22.80;93.10
20349;DHT22;10332;50.208;18.988;2022-07-23T01:54:51;22.80;93.20
20349;DHT22;10332;50.208;18.988;2022-07-23T01:57:19;22.80;93.10
20349;DHT22;10332;50.208;18.988;2022-07-23T01:59:46;22.80;93.30
20349;DHT22;10332;50.208;18.988;2022-07-23T02:02:13;22.70;93.20
20349;DHT22;10332;50.208;18.988;2022-07-23T02:04:41;22.70;93.20
20349;DHT22;10332;50.208;18.988;2022-07-23T02:07:08;22.60;93.40
20349;DHT22;10332;50.208;18.988;2022-07-23T02:09:35;22.60;93.80
20349;DHT22;10332;50.208;18.988;2022-07-23T02:12:03;22.50;93.80
20349;DHT22;10332;50.208;18.988;2022-07-23T02:14:31;22.50;93.80
20349;DHT22;10332;50.208;18.988;2022-07-23T02:16:58;22.50;93.90
20349;DHT22;10332;50.208;18.988;2022-07-23T02:19:26;22.40;94.30
20349;DHT22;10332;50.208;18.988;2022-07-23T02:21:53;22.30;94.30
20349;DHT22;10332;50.208;18.988;2022-07-23T02:24:21;22.30;94.40
20349;DHT22;10332;50.208;18.988;2022-07-23T02:26:48;22.30;94.50
20349;DHT22;10332;50.208;18.988;2022-07-23T02:29:16;22.30;94.80
20349;DHT22;10332;50.208;18.988;2022-07-23T02:31:43;22.20;95.10
20349;DHT22;10332;50.208;18.988;2022-07-23T02:34:10;22.20;94.80
20349;DHT22;10332;50.208;18.988;2022-07-23T02:36:39;22.10;95.00
20349;DHT22;10332;50.208;18.988;2022-07-23T02:39:07;22.10;95.20
20349;DHT22;10332;50.208;18.988;2022-07-23T02:41:34;22.00;95.40
20349;DHT22;10332;50.208;18.988;2022-07-23T02:44:02;22.00;95.50
20349;DHT22;10332;50.208;18.988;2022-07-23T02:46:29;22.00;95.80
20349;DHT22;10332;50.208;18.988;2022-07-23T02:48:56;21.90;95.80
20349;DHT22;10332;50.208;18.988;2022-07-23T02:51:24;21.90;95.70
20349;DHT22;10332;50.208;18.988;2022-07-23T02:53:52;21.90;95.80
20349;DHT22;10332;50.208;18.988;2022-07-23T02:56:19;22.00;95.90
20349;DHT22;10332;50.208;18.988;2022-07-23T02:58:46;22.00;95.90
20349;DHT22;10332;50.208;18.988;2022-07-23T03:01:14;22.00;95.90
20349;DHT22;10332;50.208;18.988;2022-07-23T03:03:44;21.90;95.70
20349;DHT22;10332;50.208;18.988;2022-07-23T03:06:11;21.90;95.80
20349;DHT22;10332;50.208;18.988;2022-07-23T03:08:39;21.80;95.90
20349;DHT22;10332;50.208;18.988;2022-07-23T03:11:06;21.80;96.00
20349;DHT22;10332;50.208;18.988;2022-07-23T03:13:39;21.70;96.50
20349;DHT22;10332;50.208;18.988;2022-07-23T03:16:07;21.70;96.20
20349;DHT22;10332;50.208;18.988;2022-07-23T03:18:35;21.70;96.10
20349;DHT22;10332;50.208;18.988;2022-07-23T03:21:07;21.80;96.00
20349;DHT22;10332;50.208;18.988;2022-07-23T03:23:34;21.80;95.90
20349;DHT22;10332;50.208;18.988;2022-07-23T03:26:02;21.90;96.00
20349;DHT22;10332;50.208;18.988;2022-07-23T03:28:30;21.90;95.90
20349;DHT22;10332;50.208;18.988;2022-07-23T03:30:57;21.90;95.80
20349;DHT22;10332;50.208;18.988;2022-07-23T03:33:25;21.90;95.70
20349;DHT22;10332;50.208;18.988;2022-07-23T03:35:53;22.00;95.60
20349;DHT22;10332;50.208;18.988;2022-07-23T03:38:20;22.00;95.40
20349;DHT22;10332;50.208;18.988;2022-07-23T03:40:48;22.10;95.60
20349;DHT22;10332;50.208;18.988;2022-07-23T03:43:15;22.10;95.70
20349;DHT22;10332;50.208;18.988;2022-07-23T03:45:42;22.10;95.70
20349;DHT22;10332;50.208;18.988;2022-07-23T03:48:10;22.10;95.50
20349;DHT22;10332;50.208;18.988;2022-07-23T03:50:38;22.20;95.50
20349;DHT22;10332;50.208;18.988;2022-07-23T03:53:05;22.20;95.40
20349;DHT22;10332;50.208;18.988;2022-07-23T03:55:32;22.20;95.30
20349;DHT22;10332;50.208;18.988;2022-07-23T03:57:59;22.30;95.20
20349;DHT22;10332;50.208;18.988;2022-07-23T04:00:27;22.40;95.20
20349;DHT22;10332;50.208;18.988;2022-07-23T04:02:54;22.40;95.10
20349;DHT22;10332;50.208;18.988;2022-07-23T04:05:22;22.50;95.30
20349;DHT22;10332;50.208;18.988;2022-07-23T04:07:49;22.50;95.40
20349;DHT22;10332;50.208;18.988;2022-07-23T04:10:16;22.50;95.50
20349;DHT22;10332;50.208;18.988;2022-07-23T04:12:44;22.50;95.40
20349;DHT22;10332;50.208;18.988;2022-07-23T04:15:11;22.50;95.60
20349;DHT22;10332;50.208;18.988;2022-07-23T04:17:38;22.50;95.60
20349;DHT22;10332;50.208;18.988;2022-07-23T04:20:06;22.60;95.60
20349;DHT22;10332;50.208;18.988;2022-07-23T04:22:33;22.60;95.60
20349;DHT22;10332;50.208;18.988;2022-07-23T04:25:01;22.60;95.50
20349;DHT22;10332;50.208;18.988;2022-07-23T04:27:29;22.70;95.40
20349;DHT22;10332;50.208;18.988;2022-07-23T04:29:56;22.80;95.10
20349;DHT22;10332;50.208;18.988;2022-07-23T04:32:23;22.90;94.90
20349;DHT22;10332;50.208;18.988;2022-07-23T04:34:51;23.00;95.00
20349;DHT22;10332;50.208;18.988;2022-07-23T04:37:18;23.00;95.10
20349;DHT22;10332;50.208;18.988;2022-07-23T04:39:45;23.00;95.20
20349;DHT22;10332;50.208;18.988;2022-07-23T04:42:13;23.00;95.00
20349;DHT22;10332;50.208;18.988;2022-07-23T04:44:40;23.10;94.90
20349;DHT22;10332;50.208;18.988;2022-07-23T04:47:07;23.10;94.70
20349;DHT22;10332;50.208;18.988;2022-07-23T04:49:35;23.20;94.60
20349;DHT22;10332;50.208;18.988;2022-07-23T04:52:02;23.30;94.40
20349;DHT22;10332;50.208;18.988;2022-07-23T04:54:30;23.40;94.20
20349;DHT22;10332;50.208;18.988;2022-07-23T04:56:57;23.50;94.00
20349;DHT22;10332;50.208;18.988;2022-07-23T04:59:24;23.50;93.80
20349;DHT22;10332;50.208;18.988;2022-07-23T05:01:52;23.50;93.70
20349;DHT22;10332;50.208;18.988;2022-07-23T05:04:19;23.60;93.60
20349;DHT22;10332;50.208;18.988;2022-07-23T05:06:47;23.60;93.50
20349;DHT22;10332;50.208;18.988;2022-07-23T05:09:14;23.70;93.30
20349;DHT22;10332;50.208;18.988;2022-07-23T05:11:42;23.80;93.20
20349;DHT22;10332;50.208;18.988;2022-07-23T05:14:09;23.70;93.20
20349;DHT22;10332;50.208;18.988;2022-07-23T05:16:39;23.70;93.20
20349;DHT22;10332;50.208;18.988;2022-07-23T05:19:07;23.70;93.40
20349;DHT22;10332;50.208;18.988;2022-07-23T05:21:34;23.70;93.50
20349;DHT22;10332;50.208;18.988;2022-07-23T05:24:02;23.80;93.50
20349;DHT22;10332;50.208;18.988;2022-07-23T05:26:30;23.80;93.50
20349;DHT22;10332;50.208;18.988;2022-07-23T05:28:57;23.90;93.70
20349;DHT22;10332;50.208;18.988;2022-07-23T05:31:24;24.00;93.60
20349;DHT22;10332;50.208;18.988;2022-07-23T05:33:52;24.10;93.50
20349;DHT22;10332;50.208;18.988;2022-07-23T05:36:19;24.10;93.40
20349;DHT22;10332;50.208;18.988;2022-07-23T05:38:47;24.20;93.20
20349;DHT22;10332;50.208;18.988;2022-07-23T05:41:14;24.30;93.10
20349;DHT22;10332;50.208;18.988;2022-07-23T05:43:41;24.40;93.00
20349;DHT22;10332;50.208;18.988;2022-07-23T05:46:09;24.40;92.80
20349;DHT22;10332;50.208;18.988;2022-07-23T05:48:36;24.50;92.70
20349;DHT22;10332;50.208;18.988;2022-07-23T05:51:04;24.50;92.70
20349;DHT22;10332;50.208;18.988;2022-07-23T05:53:34;24.60;92.90
20349;DHT22;10332;50.208;18.988;2022-07-23T05:56:02;24.60;92.80
20349;DHT22;10332;50.208;18.988;2022-07-23T05:58:30;24.60;92.90
20349;DHT22;10332;50.208;18.988;2022-07-23T06:00:57;24.60;93.00
20349;DHT22;10332;50.208;18.988;2022-07-23T06:03:25;24.60;93.20
20349;DHT22;10332;50.208;18.988;2022-07-23T06:05:52;24.60;93.50
20349;DHT22;10332;50.208;18.988;2022-07-23T06:08:19;24.60;93.50
20349;DHT22;10332;50.208;18.988;2022-07-23T06:10:46;24.60;93.40
20349;DHT22;10332;50.208;18.988;2022-07-23T06:13:15;24.70;93.70
20349;DHT22;10332;50.208;18.988;2022-07-23T06:15:44;24.70;94.00
20349;DHT22;10332;50.208;18.988;2022-07-23T06:18:12;24.80;94.20
20349;DHT22;10332;50.208;18.988;2022-07-23T06:20:39;24.80;94.60
20349;DHT22;10332;50.208;18.988;2022-07-23T06:23:07;24.90;94.50
20349;DHT22;10332;50.208;18.988;2022-07-23T06:25:34;25.00;94.80
20349;DHT22;10332;50.208;18.988;2022-07-23T06:28:02;25.10;94.60
20349;DHT22;10332;50.208;18.988;2022-07-23T06:30:29;25.20;95.00
20349;DHT22;10332;50.208;18.988;2022-07-23T06:32:56;25.30;95.00
20349;DHT22;10332;50.208;18.988;2022-07-23T06:35:24;25.50;94.90
20349;DHT22;10332;50.208;18.988;2022-07-23T06:37:51;25.60;94.80
20349;DHT22;10332;50.208;18.988;2022-07-23T06:40:18;25.70;94.50
20349;DHT22;10332;50.208;18.988;2022-07-23T06:42:47;25.80;94.30
20349;DHT22;10332;50.208;18.988;2022-07-23T06:45:14;26.00;94.10
20349;DHT22;10332;50.208;18.988;2022-07-23T06:47:41;26.10;93.80
20349;DHT22;10332;50.208;18.988;2022-07-23T06:50:09;26.20;93.30
20349;DHT22;10332;50.208;18.988;2022-07-23T06:52:37;26.30;92.90
20349;DHT22;10332;50.208;18.988;2022-07-23T06:55:09;26.50;92.60
20349;DHT22;10332;50.208;18.988;2022-07-23T06:57:36;26.60;92.30
20349;DHT22;10332;50.208;18.988;2022-07-23T07:00:04;26.80;92.00
20349;DHT22;10332;50.208;18.988;2022-07-23T07:02:33;27.00;91.30
20349;DHT22;10332;50.208;18.988;2022-07-23T07:05:00;27.10;90.50
20349;DHT22;10332;50.208;18.988;2022-07-23T07:07:32;27.30;90.20
20349;DHT22;10332;50.208;18.988;2022-07-23T07:10:02;27.50;88.60
20349;DHT22;10332;50.208;18.988;2022-07-23T07:12:37;27.60;85.60
20349;DHT22;10332;50.208;18.988;2022-07-23T07:15:05;27.70;84.80
20349;DHT22;10332;50.208;18.988;2022-07-23T07:17:33;27.90;83.80
20349;DHT22;10332;50.208;18.988;2022-07-23T07:20:00;28.00;82.50
20349;DHT22;10332;50.208;18.988;2022-07-23T07:22:27;28.20;81.80
20349;DHT22;10332;50.208;18.988;2022-07-23T07:24:54;28.30;81.10
20349;DHT22;10332;50.208;18.988;2022-07-23T07:27:22;28.50;79.30
20349;DHT22;10332;50.208;18.988;2022-07-23T07:29:49;28.70;77.40
20349;DHT22;10332;50.208;18.988;2022-07-23T07:32:16;28.80;74.10
20349;DHT22;10332;50.208;18.988;2022-07-23T07:35:05;28.90;73.90
20349;DHT22;10332;50.208;18.988;2022-07-23T07:37:33;29.00;72.30
20349;DHT22;10332;50.208;18.988;2022-07-23T07:40:00;29.20;70.80
20349;DHT22;10332;50.208;18.988;2022-07-23T07:42:28;29.40;69.80
20349;DHT22;10332;50.208;18.988;2022-07-23T07:44:55;29.50;69.70
20349;DHT22;10332;50.208;18.988;2022-07-23T07:47:23;29.70;66.50
20349;DHT22;10332;50.208;18.988;2022-07-23T07:49:51;29.90;63.70
20349;DHT22;10332;50.208;18.988;2022-07-23T07:52:18;29.90;58.80
20349;DHT22;10332;50.208;18.988;2022-07-23T07:54:45;30.00;58.20
20349;DHT22;10332;50.208;18.988;2022-07-23T07:57:14;30.20;56.90
20349;DHT22;10332;50.208;18.988;2022-07-23T07:59:43;30.30;54.80
20349;DHT22;10332;50.208;18.988;2022-07-23T08:02:11;30.50;54.60
20349;DHT22;10332;50.208;18.988;2022-07-23T08:04:39;30.60;52.50
20349;DHT22;10332;50.208;18.988;2022-07-23T08:07:06;30.70;51.70
20349;DHT22;10332;50.208;18.988;2022-07-23T08:09:33;30.70;52.30
20349;DHT22;10332;50.208;18.988;2022-07-23T08:12:01;30.80;51.10
20349;DHT22;10332;50.208;18.988;2022-07-23T08:14:28;30.90;50.70
20349;DHT22;10332;50.208;18.988;2022-07-23T08:16:55;31.00;51.00
20349;DHT22;10332;50.208;18.988;2022-07-23T08:19:40;31.00;49.30
20349;DHT22;10332;50.208;18.988;2022-07-23T08:22:07;31.10;47.70
20349;DHT22;10332;50.208;18.988;2022-07-23T08:24:35;31.10;47.50
20349;DHT22;10332;50.208;18.988;2022-07-23T08:27:02;31.20;47.90
20349;DHT22;10332;50.208;18.988;2022-07-23T08:29:30;31.30;48.80
20349;DHT22;10332;50.208;18.988;2022-07-23T08:31:57;31.50;50.20
20349;DHT22;10332;50.208;18.988;2022-07-23T08:34:26;31.70;50.20
20349;DHT22;10332;50.208;18.988;2022-07-23T08:36:53;31.90;45.00
20349;DHT22;10332;50.208;18.988;2022-07-23T08:39:21;32.00;42.40
20349;DHT22;10332;50.208;18.988;2022-07-23T08:41:49;32.10;41.00
20349;DHT22;10332;50.208;18.988;2022-07-23T08:44:17;32.10;41.00
20349;DHT22;10332;50.208;18.988;2022-07-23T08:46:44;32.40;41.00
20349;DHT22;10332;50.208;18.988;2022-07-23T08:49:12;32.50;39.00
20349;DHT22;10332;50.208;18.988;2022-07-23T08:51:41;32.60;35.20
20349;DHT22;10332;50.208;18.988;2022-07-23T08:54:09;32.60;33.80
20349;DHT22;10332;50.208;18.988;2022-07-23T08:56:37;32.50;33.90
20349;DHT22;10332;50.208;18.988;2022-07-23T08:59:04;32.60;34.70
20349;DHT22;10332;50.208;18.988;2022-07-23T09:01:32;32.70;33.50
20349;DHT22;10332;50.208;18.988;2022-07-23T09:03:59;32.80;32.00
20349;DHT22;10332;50.208;18.988;2022-07-23T09:06:29;33.00;30.50
20349;DHT22;10332;50.208;18.988;2022-07-23T09:08:56;33.10;29.20
20349;DHT22;10332;50.208;18.988;2022-07-23T09:11:23;33.20;28.30
20349;DHT22;10332;50.208;18.988;2022-07-23T09:13:52;33.30;22.70
20349;DHT22;10332;50.208;18.988;2022-07-23T09:16:25;33.40;20.30
20349;DHT22;10332;50.208;18.988;2022-07-23T09:19:05;33.30;22.10
20349;DHT22;10332;50.208;18.988;2022-07-23T09:21:39;33.50;20.40
20349;DHT22;10332;50.208;18.988;2022-07-23T09:24:09;33.70;17.50
20349;DHT22;10332;50.208;18.988;2022-07-23T09:26:46;34.10;16.00
20349;DHT22;10332;50.208;18.988;2022-07-23T09:29:22;34.60;12.80
20349;DHT22;10332;50.208;18.988;2022-07-23T09:31:57;35.30;9.50
20349;DHT22;10332;50.208;18.988;2022-07-23T09:34:36;35.80;1.00
20349;DHT22;10332;50.208;18.988;2022-07-23T09:37:15;36.10;1.00
20349;DHT22;10332;50.208;18.988;2022-07-23T09:39:47;37.70;1.00
20349;DHT22;10332;50.208;18.988;2022-07-23T09:42:25;40.80;1.00
20349;DHT22;10332;50.208;18.988;2022-07-23T09:44:57;44.20;1.00
20349;DHT22;10332;50.208;18.988;2022-07-23T09:47:29;47.40;1.00
20349;DHT22;10332;50.208;18.988;2022-07-23T09:50:05;48.80;1.00
20349;DHT22;10332;50.208;18.988;2022-07-23T09:52:45;47.30;1.00
20349;DHT22;10332;50.208;18.988;2022-07-23T09:55:16;46.20;1.00
20349;DHT22;10332;50.208;18.988;2022-07-23T09:57:46;46.20;1.00
20349;DHT22;10332;50.208;18.988;2022-07-23T10:00:23;46.00;1.00
20349;DHT22;10332;50.208;18.988;2022-07-23T10:02:51;45.30;1.00
20349;DHT22;10332;50.208;18.988;2022-07-23T10:05:20;45.20;1.00
20349;DHT22;10332;50.208;18.988;2022-07-23T10:07:48;46.50;1.00
20349;DHT22;10332;50.208;18.988;2022-07-23T10:10:21;46.60;1.00
20349;DHT22;10332;50.208;18.988;2022-07-23T10:12:54;46.40;1.00
20349;DHT22;10332;50.208;18.988;2022-07-23T10:15:47;47.00;1.00
20349;DHT22;10332;50.208;18.988;2022-07-23T10:18:15;47.00;1.00
20349;DHT22;10332;50.208;18.988;2022-07-23T10:20:43;46.40;1.00
20349;DHT22;10332;50.208;18.988;2022-07-23T10:23:31;45.80;1.00
20349;DHT22;10332;50.208;18.988;2022-07-23T10:26:35;45.80;1.00
20349;DHT22;10332;50.208;18.988;2022-07-23T10:41:36;48.80;1.00
20349;DHT22;10332;50.208;18.988;2022-07-23T10:44:10;49.20;1.00
20349;DHT22;10332;50.208;18.988;2022-07-23T10:47:02;47.80;1.00
20349;DHT22;10332;50.208;18.988;2022-07-23T10:49:35;46.40;1.00
20349;DHT22;10332;50.208;18.988;2022-07-23T10:52:24;45.20;1.00
20349;DHT22;10332;50.208;18.988;2022-07-23T10:57:50;43.80;1.00
20349;DHT22;10332;50.208;18.988;2022-07-23T11:00:23;43.20;1.00
20349;DHT22;10332;50.208;18.988;2022-07-23T11:02:57;42.80;1.00
20349;DHT22;10332;50.208;18.988;2022-07-23T11:05:43;42.20;1.00
20349;DHT22;10332;50.208;18.988;2022-07-23T11:08:13;41.50;1.00
20349;DHT22;10332;50.208;18.988;2022-07-23T11:11:08;40.60;1.00
20349;DHT22;10332;50.208;18.988;2022-07-23T11:13:42;40.00;1.00
20349;DHT22;10332;50.208;18.988;2022-07-23T11:16:16;39.50;1.00
20349;DHT22;10332;50.208;18.988;2022-07-23T11:18:57;39.00;1.00
20349;DHT22;10332;50.208;18.988;2022-07-23T11:21:40;38.70;1.00
20349;DHT22;10332;50.208;18.988;2022-07-23T11:24:16;38.60;1.00
20349;DHT22;10332;50.208;18.988;2022-07-23T11:26:58;38.50;1.00
20349;DHT22;10332;50.208;18.988;2022-07-23T11:32:26;38.40;1.00
20349;DHT22;10332;50.208;18.988;2022-07-23T11:34:56;38.40;1.00
20349;DHT22;10332;50.208;18.988;2022-07-23T11:37:38;38.20;1.00
20349;DHT22;10332;50.208;18.988;2022-07-23T11:40:11;38.30;1.00
20349;DHT22;10332;50.208;18.988;2022-07-23T11:45:22;38.30;1.00
20349;DHT22;10332;50.208;18.988;2022-07-23T11:47:51;38.40;1.00
20349;DHT22;10332;50.208;18.988;2022-07-23T11:50:18;38.60;1.00
20349;DHT22;10332;50.208;18.988;2022-07-23T11:52:46;38.90;1.00
20349;DHT22;10332;50.208;18.988;2022-07-23T11:55:13;39.10;1.00
20349;DHT22;10332;50.208;18.988;2022-07-23T11:57:44;39.30;1.00
20349;DHT22;10332;50.208;18.988;2022-07-23T12:00:13;39.60;1.00
20349;DHT22;10332;50.208;18.988;2022-07-23T12:02:53;39.80;1.00
20349;DHT22;10332;50.208;18.988;2022-07-23T12:05:26;39.90;1.00
20349;DHT22;10332;50.208;18.988;2022-07-23T12:07:56;39.90;1.00
20349;DHT22;10332;50.208;18.988;2022-07-23T12:10:40;40.00;1.00
20349;DHT22;10332;50.208;18.988;2022-07-23T12:13:12;39.90;1.00
20349;DHT22;10332;50.208;18.988;2022-07-23T12:18:22;39.90;1.00
20349;DHT22;10332;50.208;18.988;2022-07-23T12:20:56;39.40;1.00
20349;DHT22;10332;50.208;18.988;2022-07-23T12:23:26;38.90;1.00
20349;DHT22;10332;50.208;18.988;2022-07-23T12:25:54;38.10;1.00
20349;DHT22;10332;50.208;18.988;2022-07-23T12:28:29;37.70;1.00
20349;DHT22;10332;50.208;18.988;2022-07-23T12:30:59;37.30;1.00
20349;DHT22;10332;50.208;18.988;2022-07-23T12:36:06;36.70;1.00
20349;DHT22;10332;50.208;18.988;2022-07-23T12:38:43;36.30;1.00
20349;DHT22;10332;50.208;18.988;2022-07-23T12:41:16;36.00;1.00
20349;DHT22;10332;50.208;18.988;2022-07-23T12:44:14;35.70;1.00
20349;DHT22;10332;50.208;18.988;2022-07-23T12:46:42;35.30;1.00
20349;DHT22;10332;50.208;18.988;2022-07-23T12:49:09;35.00;1.00
20349;DHT22;10332;50.208;18.988;2022-07-23T12:51:39;34.80;1.00
20349;DHT22;10332;50.208;18.988;2022-07-23T12:54:27;34.60;1.00
20349;DHT22;10332;50.208;18.988;2022-07-23T12:56:55;34.40;1.00
20349;DHT22;10332;50.208;18.988;2022-07-23T12:59:22;34.40;1.00
20349;DHT22;10332;50.208;18.988;2022-07-23T13:01:55;34.40;1.00
20349;DHT22;10332;50.208;18.988;2022-07-23T13:04:26;34.50;1.00
20349;DHT22;10332;50.208;18.988;2022-07-23T13:06:58;34.80;1.00
20349;DHT22;10332;50.208;18.988;2022-07-23T13:09:33;35.00;1.00
20349;DHT22;10332;50.208;18.988;2022-07-23T13:12:08;35.20;1.00
20349;DHT22;10332;50.208;18.988;2022-07-23T13:14:38;35.10;1.00
20349;DHT22;10332;50.208;18.988;2022-07-23T13:17:05;35.00;1.00
20349;DHT22;10332;50.208;18.988;2022-07-23T13:19:33;34.70;1.00
20349;DHT22;10332;50.208;18.988;2022-07-23T13:22:01;34.50;1.00
20349;DHT22;10332;50.208;18.988;2022-07-23T13:24:35;34.30;1.00
20349;DHT22;10332;50.208;18.988;2022-07-23T13:27:05;34.30;1.00
20349;DHT22;10332;50.208;18.988;2022-07-23T13:29:39;34.30;1.00
20349;DHT22;10332;50.208;18.988;2022-07-23T13:32:07;34.10;1.00
20349;DHT22;10332;50.208;18.988;2022-07-23T13:34:37;33.90;1.00
20349;DHT22;10332;50.208;18.988;2022-07-23T13:37:07;33.60;1.00
20349;DHT22;10332;50.208;18.988;2022-07-23T13:39:34;33.40;1.00
20349;DHT22;10332;50.208;18.988;2022-07-23T13:42:05;33.30;1.00
20349;DHT22;10332;50.208;18.988;2022-07-23T13:44:33;33.20;1.00
20349;DHT22;10332;50.208;18.988;2022-07-23T13:47:03;33.10;1.00
20349;DHT22;10332;50.208;18.988;2022-07-23T13:49:31;33.10;1.00
20349;DHT22;10332;50.208;18.988;2022-07-23T13:52:02;32.90;1.00
20349;DHT22;10332;50.208;18.988;2022-07-23T13:54:34;32.80;1.00
20349;DHT22;10332;50.208;18.988;2022-07-23T13:57:02;32.60;1.00
20349;DHT22;10332;50.208;18.988;2022-07-23T13:59:29;32.40;1.00
20349;DHT22;10332;50.208;18.988;2022-07-23T14:01:57;32.40;1.00
20349;DHT22;10332;50.208;18.988;2022-07-23T14:04:44;32.20;1.00
20349;DHT22;10332;50.208;18.988;2022-07-23T14:07:12;32.10;1.00
20349;DHT22;10332;50.208;18.988;2022-07-23T14:09:39;32.00;1.00
20349;DHT22;10332;50.208;18.988;2022-07-23T14:12:07;32.00;1.00
20349;DHT22;10332;50.208;18.988;2022-07-23T14:14:37;31.80;1.00
20349;DHT22;10332;50.208;18.988;2022-07-23T14:17:05;31.70;1.00
20349;DHT22;10332;50.208;18.988;2022-07-23T14:19:37;31.60;1.00
20349;DHT22;10332;50.208;18.988;2022-07-23T14:22:04;31.60;1.00
20349;DHT22;10332;50.208;18.988;2022-07-23T14:24:32;31.50;1.00
20349;DHT22;10332;50.208;18.988;2022-07-23T14:27:04;31.50;1.00
20349;DHT22;10332;50.208;18.988;2022-07-23T14:29:31;31.40;1.00
20349;DHT22;10332;50.208;18.988;2022-07-23T14:32:01;31.40;1.00
20349;DHT22;10332;50.208;18.988;2022-07-23T14:34:29;31.60;1.00
20349;DHT22;10332;50.208;18.988;2022-07-23T14:36:57;31.70;1.00
20349;DHT22;10332;50.208;18.988;2022-07-23T14:39:25;32.00;1.00
20349;DHT22;10332;50.208;18.988;2022-07-23T14:41:53;32.30;2.00
20349;DHT22;10332;50.208;18.988;2022-07-23T14:44:20;32.70;2.80
20349;DHT22;10332;50.208;18.988;2022-07-23T14:46:47;33.10;2.20
20349;DHT22;10332;50.208;18.988;2022-07-23T14:49:16;33.30;1.50
20349;DHT22;10332;50.208;18.988;2022-07-23T14:51:44;33.60;1.80
20349;DHT22;10332;50.208;18.988;2022-07-23T14:54:11;33.90;1.50
20349;DHT22;10332;50.208;18.988;2022-07-23T14:56:41;34.20;2.40
20349;DHT22;10332;50.208;18.988;2022-07-23T14:59:10;34.30;2.20
20349;DHT22;10332;50.208;18.988;2022-07-23T15:01:38;34.30;1.30
20349;DHT22;10332;50.208;18.988;2022-07-23T15:04:07;34.30;1.00
20349;DHT22;10332;50.208;18.988;2022-07-23T15:06:54;34.30;1.00
20349;DHT22;10332;50.208;18.988;2022-07-23T15:09:22;34.10;1.00
20349;DHT22;10332;50.208;18.988;2022-07-23T15:11:49;34.00;1.00
20349;DHT22;10332;50.208;18.988;2022-07-23T15:14:16;33.70;1.00
20349;DHT22;10332;50.208;18.988;2022-07-23T15:16:54;33.40;1.00
20349;DHT22;10332;50.208;18.988;2022-07-23T15:19:21;33.00;1.00
20349;DHT22;10332;50.208;18.988;2022-07-23T15:21:49;32.60;1.20
20349;DHT22;10332;50.208;18.988;2022-07-23T15:24:16;32.40;1.60
20349;DHT22;10332;50.208;18.988;2022-07-23T15:26:43;32.20;1.90
20349;DHT22;10332;50.208;18.988;2022-07-23T15:29:12;32.00;2.00
20349;DHT22;10332;50.208;18.988;2022-07-23T15:31:39;31.80;2.90
20349;DHT22;10332;50.208;18.988;2022-07-23T15:34:07;31.60;3.30
20349;DHT22;10332;50.208;18.988;2022-07-23T15:36:34;31.40;3.50
20349;DHT22;10332;50.208;18.988;2022-07-23T15:39:02;31.20;4.30
20349;DHT22;10332;50.208;18.988;2022-07-23T15:41:31;31.10;5.30
20349;DHT22;10332;50.208;18.988;2022-07-23T15:43:59;31.00;6.10
20349;DHT22;10332;50.208;18.988;2022-07-23T15:46:47;30.90;6.80
20349;DHT22;10332;50.208;18.988;2022-07-23T15:49:15;30.70;7.80
20349;DHT22;10332;50.208;18.988;2022-07-23T15:51:45;30.50;8.80
20349;DHT22;10332;50.208;18.988;2022-07-23T15:54:14;30.30;10.80
20349;DHT22;10332;50.208;18.988;2022-07-23T15:56:42;30.20;11.80
20349;DHT22;10332;50.208;18.988;2022-07-23T15:59:09;30.00;13.30
20349;DHT22;10332;50.208;18.988;2022-07-23T16:01:38;29.90;14.90
20349;DHT22;10332;50.208;18.988;2022-07-23T16:04:05;29.80;16.10